createdAt,value
2019-02-17T00:01:44.162Z,14.10
2019-02-17T00:04:13.414Z,15.17
2019-02-17T00:06:42.685Z,13.90
2019-02-17T00:09:12.328Z,14.57
2019-02-17T00:11:41.647Z,15.77
2019-02-17T00:14:10.948Z,14.80
2019-02-17T00:16:40.184Z,16.00
2019-02-17T00:19:09.448Z,15.67
2019-02-17T00:21:40.050Z,15.33
2019-02-17T00:24:09.295Z,15.23
2019-02-17T00:26:38.627Z,13.07
2019-02-17T00:29:07.873Z,15.50
2019-02-17T00:31:37.136Z,14.73
2019-02-17T00:34:06.389Z,13.93
2019-02-17T00:36:35.638Z,12.77
2019-02-17T00:39:06.232Z,15.47
2019-02-17T00:41:35.494Z,14.30
2019-02-17T00:44:04.748Z,13.83
2019-02-17T00:46:33.989Z,12.60
2019-02-17T00:49:03.257Z,15.53
2019-02-17T00:51:32.494Z,12.90
2019-02-17T00:54:01.748Z,14.07
2019-02-17T00:56:31.015Z,13.63
2019-02-17T00:59:09.701Z,13.30
2019-02-17T01:01:31.213Z,13.90
2019-02-17T01:04:00.491Z,13.03
2019-02-17T01:06:29.734Z,13.10
2019-02-17T01:08:59.003Z,14.90
2019-02-17T01:11:28.287Z,13.83
2019-02-17T01:13:57.551Z,15.07
2019-02-17T01:16:26.776Z,13.93
2019-02-17T01:18:56.070Z,14.30
2019-02-17T01:21:25.456Z,15.17
2019-02-17T01:23:54.699Z,15.60
2019-02-17T01:26:23.934Z,15.70
2019-02-17T01:28:53.164Z,14.70
2019-02-17T01:31:22.411Z,14.20
2019-02-17T01:33:51.670Z,13.03
2019-02-17T01:36:20.908Z,13.17
2019-02-17T01:38:50.157Z,14.27
2019-02-17T01:41:19.399Z,15.50
2019-02-17T01:43:48.659Z,14.93
2019-02-17T01:46:17.974Z,14.93
2019-02-17T01:48:47.207Z,15.07
2019-02-17T01:51:16.473Z,12.53
2019-02-17T01:53:45.723Z,13.47
2019-02-17T01:56:14.991Z,12.20
2019-02-17T01:58:44.261Z,13.83
2019-02-17T02:01:13.521Z,11.90
2019-02-17T02:03:42.746Z,13.13
2019-02-17T02:06:12.106Z,12.77
2019-02-17T02:08:41.351Z,12.97
2019-02-17T02:11:10.654Z,13.43
2019-02-17T02:13:39.916Z,12.53
2019-02-17T02:16:09.305Z,13.27
2019-02-17T02:18:38.669Z,12.30
2019-02-17T02:21:07.956Z,14.23
2019-02-17T02:23:37.195Z,13.20
2019-02-17T02:26:06.513Z,13.23
2019-02-17T02:28:35.784Z,11.28
2019-02-17T02:31:05.031Z,13.83
2019-02-17T02:33:34.291Z,14.10
2019-02-17T02:36:03.522Z,14.00
2019-02-17T02:38:32.788Z,13.53
2019-02-17T02:41:02.028Z,13.20
2019-02-17T02:43:31.279Z,14.53
2019-02-17T02:46:00.518Z,13.93
2019-02-17T02:48:29.793Z,13.67
2019-02-17T02:50:59.056Z,13.70
2019-02-17T02:53:28.382Z,13.97
2019-02-17T02:55:57.642Z,14.37
2019-02-17T02:58:26.897Z,14.33
2019-02-17T03:00:56.148Z,14.00
2019-02-17T03:03:25.392Z,13.83
2019-02-17T03:06:05.046Z,13.17
2019-02-17T03:08:34.309Z,13.17
2019-02-17T03:11:03.643Z,14.73
2019-02-17T03:13:32.895Z,13.80
2019-02-17T03:16:02.166Z,14.00
2019-02-17T03:18:31.416Z,14.03
2019-02-17T03:21:00.675Z,14.30
2019-02-17T03:23:29.926Z,14.43
2019-02-17T03:25:59.191Z,13.77
2019-02-17T03:28:28.487Z,13.38
2019-02-17T03:30:57.743Z,14.90
2019-02-17T03:33:27.063Z,14.30
2019-02-17T03:35:56.303Z,13.57
2019-02-17T03:38:25.530Z,13.83
2019-02-17T03:40:54.801Z,15.37
2019-02-17T03:43:24.228Z,15.57
2019-02-17T03:45:53.478Z,14.10
2019-02-17T03:48:22.745Z,13.75
2019-02-17T03:50:51.999Z,13.93
2019-02-17T03:53:21.237Z,13.90
2019-02-17T03:55:50.547Z,14.10
2019-02-17T03:58:19.800Z,14.17
2019-02-17T04:00:49.028Z,14.07
2019-02-17T04:03:18.273Z,14.63
2019-02-17T04:05:47.505Z,14.80
2019-02-17T04:08:16.775Z,14.67
2019-02-17T04:10:46.013Z,13.03
2019-02-17T04:13:15.272Z,13.57
2019-02-17T04:15:44.524Z,15.07
2019-02-17T04:18:13.750Z,14.00
2019-02-17T04:20:43.047Z,14.97
2019-02-17T04:23:12.306Z,14.60
2019-02-17T04:25:41.544Z,14.63
2019-02-17T04:28:10.811Z,14.43
2019-02-17T04:30:40.048Z,13.68
2019-02-17T04:33:09.286Z,13.60
2019-02-17T04:35:38.544Z,14.87
2019-02-17T04:38:07.784Z,13.93
2019-02-17T04:40:37.057Z,14.37
2019-02-17T04:43:06.316Z,13.87
2019-02-17T04:45:35.551Z,13.93
2019-02-17T04:48:04.806Z,14.30
2019-02-17T04:50:34.052Z,14.73
2019-02-17T04:53:03.287Z,14.40
2019-02-17T04:55:32.525Z,15.07
2019-02-17T04:58:01.775Z,14.50
2019-02-17T05:00:39.709Z,15.20
2019-02-17T05:03:02.002Z,15.20
2019-02-17T05:05:31.283Z,13.53
2019-02-17T05:08:00.530Z,13.93
2019-02-17T05:10:29.830Z,14.50
2019-02-17T05:12:59.091Z,13.73
2019-02-17T05:15:28.352Z,14.43
2019-02-17T05:17:57.687Z,13.67
2019-02-17T05:20:26.919Z,14.13
2019-02-17T05:22:56.212Z,13.47
2019-02-17T05:25:25.496Z,13.70
2019-02-17T05:27:54.756Z,14.77
2019-02-17T05:30:23.996Z,14.00
2019-02-17T05:32:53.268Z,15.00
2019-02-17T05:35:22.504Z,14.73
2019-02-17T05:37:51.784Z,13.67
2019-02-17T05:40:21.097Z,16.17
2019-02-17T05:42:50.387Z,14.67
2019-02-17T05:45:19.615Z,15.27
2019-02-17T05:47:48.876Z,13.70
2019-02-17T05:50:18.248Z,14.43
2019-02-17T05:52:47.580Z,14.70
2019-02-17T05:55:16.820Z,13.47
2019-02-17T05:57:46.085Z,13.07
2019-02-17T06:00:17.295Z,13.40
2019-02-17T06:02:46.621Z,13.00
2019-02-17T06:05:15.952Z,14.73
2019-02-17T06:07:45.224Z,13.83
2019-02-17T06:10:14.504Z,14.13
2019-02-17T06:12:43.736Z,13.07
2019-02-17T06:15:13.012Z,13.27
2019-02-17T06:17:42.284Z,13.47
2019-02-17T06:20:11.704Z,13.33
2019-02-17T06:22:41.020Z,12.97
2019-02-17T06:25:10.361Z,13.37
2019-02-17T06:27:39.597Z,12.33
2019-02-17T06:30:09.610Z,12.80
2019-02-17T06:32:38.848Z,12.90
2019-02-17T06:35:08.812Z,12.07
2019-02-17T06:37:38.052Z,12.00
2019-02-17T06:40:08.479Z,12.13
2019-02-17T06:42:37.720Z,13.13
2019-02-17T06:45:08.729Z,11.77
2019-02-17T06:47:37.968Z,13.03
2019-02-17T06:50:09.697Z,11.30
2019-02-17T06:52:38.966Z,11.60
2019-02-17T06:55:22.116Z,13.47
2019-02-17T06:57:51.390Z,12.57
2019-02-17T07:00:25.463Z,13.13
2019-02-17T07:02:54.775Z,13.10
2019-02-17T07:05:25.675Z,11.83
2019-02-17T07:07:54.974Z,13.67
2019-02-17T07:10:24.293Z,13.17
2019-02-17T07:12:53.523Z,12.13
2019-02-17T07:15:22.790Z,12.93
2019-02-17T07:17:52.083Z,12.90
2019-02-17T07:20:21.426Z,12.40
2019-02-17T07:22:50.678Z,12.07
2019-02-17T07:25:29.379Z,12.90
2019-02-17T07:27:50.945Z,14.33
2019-02-17T07:30:20.204Z,13.30
2019-02-17T07:32:49.451Z,13.87
2019-02-17T07:35:18.685Z,12.80
2019-02-17T07:37:48.915Z,13.30
2019-02-17T07:40:18.394Z,13.40
2019-02-17T07:42:47.665Z,13.20
2019-02-17T07:45:16.965Z,13.00
2019-02-17T07:47:46.230Z,13.63
2019-02-17T07:50:15.575Z,12.90
2019-02-17T07:52:44.911Z,13.33
2019-02-17T07:55:15.136Z,13.57
2019-02-17T07:57:44.391Z,13.83
2019-02-17T08:00:13.934Z,12.97
2019-02-17T08:02:43.273Z,13.00
2019-02-17T08:05:12.512Z,12.17
2019-02-17T08:07:41.768Z,12.87
2019-02-17T08:10:11.098Z,13.37
2019-02-17T08:12:40.334Z,14.20
2019-02-17T08:15:10.635Z,13.10
2019-02-17T08:17:39.906Z,13.30
2019-02-17T08:20:10.808Z,12.23
2019-02-17T08:22:40.039Z,12.40
2019-02-17T08:25:09.424Z,11.90
2019-02-17T08:27:38.697Z,12.47
2019-02-17T08:30:11.166Z,11.83
2019-02-17T08:32:40.512Z,11.23
2019-02-17T08:35:10.324Z,11.83
2019-02-17T08:37:39.629Z,10.83
2019-02-17T08:40:10.450Z,11.10
2019-02-17T08:42:39.765Z,9.20
2019-02-17T08:45:09.941Z,10.10
2019-02-17T08:47:39.204Z,9.60
2019-02-17T08:50:11.209Z,9.20
2019-02-17T08:52:40.506Z,9.00
2019-02-17T08:55:10.421Z,8.77
2019-02-17T08:57:39.715Z,8.13
2019-02-17T09:00:13.824Z,6.70
2019-02-17T09:02:43.049Z,6.70
2019-02-17T09:05:12.284Z,6.60
2019-02-17T09:07:41.544Z,5.90
2019-02-17T09:10:12.384Z,6.00
2019-02-17T09:12:41.779Z,5.87
2019-02-17T09:15:12.826Z,5.43
2019-02-17T09:17:42.073Z,5.20
2019-02-17T09:20:11.800Z,4.97
2019-02-17T09:22:41.020Z,4.90
2019-02-17T09:25:11.574Z,5.07
2019-02-17T09:27:40.920Z,5.53
2019-02-17T09:30:13.365Z,5.30
2019-02-17T09:32:42.597Z,4.60
2019-02-17T09:35:11.836Z,4.80
2019-02-17T09:37:41.140Z,5.10
2019-02-17T09:40:12.074Z,4.73
2019-02-17T09:42:41.470Z,5.03
2019-02-17T09:45:15.407Z,5.43
2019-02-17T09:47:44.652Z,4.97
2019-02-17T09:50:14.555Z,4.70
2019-02-17T09:52:43.806Z,4.77
2019-02-17T09:55:13.119Z,5.23
2019-02-17T09:57:42.341Z,5.80
2019-02-17T10:00:14.839Z,4.93
2019-02-17T10:02:44.217Z,5.20
2019-02-17T10:05:14.096Z,5.10
2019-02-17T10:07:43.739Z,4.80
2019-02-17T10:10:15.042Z,4.70
2019-02-17T10:12:44.344Z,5.03
2019-02-17T10:15:14.249Z,4.57
2019-02-17T10:17:44.628Z,5.20
2019-02-17T10:20:15.293Z,4.37
2019-02-17T10:22:44.625Z,4.10
2019-02-17T10:25:13.928Z,3.73
2019-02-17T10:27:43.201Z,5.63
2019-02-17T10:30:17.496Z,5.07
2019-02-17T10:32:46.744Z,4.10
2019-02-17T10:35:16.063Z,4.23
2019-02-17T10:37:45.319Z,4.17
2019-02-17T10:40:16.111Z,6.23
2019-02-17T10:42:45.485Z,6.10
2019-02-17T10:45:15.179Z,6.20
2019-02-17T10:47:44.547Z,7.60
2019-02-17T10:50:14.148Z,6.70
2019-02-17T10:52:43.861Z,8.37
2019-02-17T10:55:13.883Z,7.60
2019-02-17T10:57:43.204Z,8.07
2019-02-17T11:00:19.569Z,6.37
2019-02-17T11:02:48.883Z,6.40
2019-02-17T11:05:19.879Z,5.50
2019-02-17T11:07:50.068Z,5.33
2019-02-17T11:10:19.321Z,6.43
2019-02-17T11:12:48.590Z,6.03
2019-02-17T11:15:21.747Z,5.37
2019-02-17T11:17:50.991Z,5.43
2019-02-17T11:20:20.286Z,5.53
2019-02-17T11:22:49.576Z,4.57
2019-02-17T11:25:18.859Z,5.23
2019-02-17T11:27:48.222Z,4.67
2019-02-17T11:30:21.908Z,5.20
2019-02-17T11:32:57.952Z,5.43
2019-02-17T11:35:22.186Z,4.70
2019-02-17T11:37:51.461Z,4.87
2019-02-17T11:40:20.741Z,6.10
2019-02-17T11:42:50.084Z,4.90
2019-02-17T11:45:20.186Z,5.30
2019-02-17T11:47:49.442Z,4.47
2019-02-17T11:50:18.758Z,5.23
2019-02-17T11:52:48.046Z,3.80
2019-02-17T11:55:17.296Z,4.63
2019-02-17T11:57:46.520Z,4.53
2019-02-17T12:00:20.881Z,4.87
2019-02-17T12:02:50.120Z,3.97
2019-02-17T12:05:19.413Z,4.93
2019-02-17T12:07:48.712Z,4.20
2019-02-17T12:10:18.681Z,4.63
2019-02-17T12:12:48.020Z,3.80
2019-02-17T12:15:17.468Z,4.50
2019-02-17T12:17:46.696Z,4.60
2019-02-17T12:20:38.620Z,3.80
2019-02-17T12:23:12.162Z,3.93
2019-02-17T12:26:01.150Z,4.43
2019-02-17T12:28:32.022Z,3.60
2019-02-17T12:31:01.424Z,4.40
2019-02-17T12:33:30.726Z,3.60
2019-02-17T12:36:00.126Z,4.50
2019-02-17T12:38:29.512Z,4.07
2019-02-17T12:41:00.582Z,5.73
2019-02-17T12:43:29.902Z,6.07
2019-02-17T12:45:59.148Z,4.80
2019-02-17T12:48:28.580Z,4.43
2019-02-17T12:51:00.046Z,4.03
2019-02-17T12:53:28.878Z,4.23
2019-02-17T12:55:58.142Z,4.87
2019-02-17T12:58:29.965Z,5.50
2019-02-17T13:00:58.396Z,4.03
2019-02-17T13:03:28.843Z,4.93
2019-02-17T13:05:58.374Z,4.50
2019-02-17T13:08:27.636Z,5.42
2019-02-17T13:10:56.941Z,5.40
2019-02-17T13:13:26.390Z,5.33
2019-02-17T13:15:55.684Z,4.43
2019-02-17T13:18:24.990Z,5.03
2019-02-17T13:20:54.366Z,4.53
2019-02-17T13:23:23.662Z,4.90
2019-02-17T13:25:52.887Z,5.20
2019-02-17T13:28:22.116Z,5.03
2019-02-17T13:30:53.653Z,4.93
2019-02-17T13:33:22.324Z,5.40
2019-02-17T13:35:51.580Z,4.83
2019-02-17T13:38:20.827Z,6.40
2019-02-17T13:40:50.171Z,5.70
2019-02-17T13:43:19.493Z,4.70
2019-02-17T13:45:48.793Z,4.90
2019-02-17T13:48:18.868Z,4.53
2019-02-17T13:50:48.160Z,4.00
2019-02-17T13:53:17.465Z,4.07
2019-02-17T13:55:46.917Z,4.10
2019-02-17T13:58:16.232Z,3.67
2019-02-17T14:00:45.640Z,4.27
2019-02-17T14:03:14.869Z,3.60
2019-02-17T14:05:44.225Z,2.97
2019-02-17T14:08:13.708Z,3.85
2019-02-17T14:10:43.016Z,4.00
2019-02-17T14:13:12.334Z,2.70
2019-02-17T14:15:41.610Z,3.13
2019-02-17T14:18:10.853Z,3.00
2019-02-17T14:20:40.190Z,3.87
2019-02-17T14:23:09.539Z,4.10
2019-02-17T14:25:38.780Z,3.50
2019-02-17T14:28:08.091Z,2.80
2019-02-17T14:30:37.362Z,2.80
2019-02-17T14:33:06.623Z,3.50
2019-02-17T14:35:35.895Z,2.83
2019-02-17T14:38:05.137Z,2.43
2019-02-17T14:40:34.371Z,2.70
2019-02-17T14:43:03.624Z,2.40
2019-02-17T14:45:32.864Z,2.73
2019-02-17T14:48:02.130Z,2.60
2019-02-17T14:50:31.382Z,2.00
2019-02-17T14:53:00.643Z,4.80
2019-02-17T14:55:29.891Z,3.57
2019-02-17T14:58:05.388Z,3.07
2019-02-17T15:00:30.131Z,2.60
2019-02-17T15:02:59.529Z,3.03
2019-02-17T15:05:28.789Z,3.03
2019-02-17T15:07:58.118Z,2.50
2019-02-17T15:10:27.345Z,2.43
2019-02-17T15:12:56.612Z,3.27
2019-02-17T15:15:25.887Z,2.43
2019-02-17T15:17:55.155Z,2.60
2019-02-17T15:20:25.271Z,2.50
2019-02-17T15:22:54.509Z,2.57
2019-02-17T15:25:23.779Z,2.63
2019-02-17T15:27:55.155Z,2.57
2019-02-17T15:30:24.556Z,2.50
2019-02-17T15:33:03.230Z,2.40
2019-02-17T15:35:24.818Z,2.13
2019-02-17T15:37:54.270Z,2.20
2019-02-17T15:40:23.715Z,2.20
2019-02-17T15:42:53.001Z,2.27
2019-02-17T15:45:22.296Z,2.57
2019-02-17T15:47:52.970Z,1.93
2019-02-17T15:50:22.307Z,2.10
2019-02-17T15:52:53.671Z,2.10
2019-02-17T15:55:22.685Z,2.40
2019-02-17T15:57:51.953Z,2.77
2019-02-17T16:00:21.210Z,2.30
2019-02-17T16:02:50.435Z,2.90
2019-02-17T16:05:19.699Z,2.50
2019-02-17T16:07:50.872Z,2.13
2019-02-17T16:10:20.196Z,2.40
2019-02-17T16:12:49.516Z,2.80
2019-02-17T16:15:26.481Z,3.03
2019-02-17T16:17:55.761Z,2.60
2019-02-17T16:20:25.081Z,2.90
2019-02-17T16:22:54.472Z,2.60
2019-02-17T16:25:23.833Z,2.90
2019-02-17T16:27:53.270Z,3.13
2019-02-17T16:30:23.344Z,2.73
2019-02-17T16:32:52.734Z,2.83
2019-02-17T16:35:22.067Z,2.80
2019-02-17T16:37:51.419Z,2.70
2019-02-17T16:40:22.795Z,2.60
2019-02-17T16:42:53.232Z,2.90
2019-02-17T16:45:22.504Z,2.93
2019-02-17T16:47:51.812Z,2.53
2019-02-17T16:50:23.473Z,2.57
2019-02-17T16:52:52.949Z,2.70
2019-02-17T16:55:22.322Z,2.83
2019-02-17T16:57:51.560Z,2.67
2019-02-17T17:00:27.862Z,2.90
2019-02-17T17:02:57.472Z,2.77
2019-02-17T17:05:26.796Z,2.67
2019-02-17T17:07:56.107Z,2.97
2019-02-17T17:10:25.488Z,2.87
2019-02-17T17:12:54.877Z,2.70
2019-02-17T17:15:24.182Z,2.80
2019-02-17T17:17:55.255Z,2.70
2019-02-17T17:20:24.682Z,2.63
2019-02-17T17:22:53.925Z,2.50
2019-02-17T17:25:23.283Z,2.60
2019-02-17T17:27:54.795Z,3.00
2019-02-17T17:30:24.030Z,2.60
2019-02-17T17:32:53.282Z,2.20
2019-02-17T17:35:22.523Z,2.60
2019-02-17T17:37:51.835Z,2.50
2019-02-17T17:40:21.086Z,2.70
2019-02-17T17:42:50.316Z,2.43
2019-02-17T17:45:23.000Z,2.10
2019-02-17T17:47:52.234Z,2.30
2019-02-17T17:50:21.469Z,2.30
2019-02-17T17:52:50.796Z,2.10
2019-02-17T17:55:20.043Z,2.93
2019-02-17T17:57:49.278Z,2.80
2019-02-17T18:00:23.544Z,2.83
2019-02-17T18:02:52.820Z,2.50
2019-02-17T18:05:22.070Z,2.33
2019-02-17T18:07:51.319Z,2.70
2019-02-17T18:10:20.564Z,1.97
2019-02-17T18:12:49.807Z,2.50
2019-02-17T18:15:20.109Z,2.73
2019-02-17T18:17:54.248Z,2.83
2019-02-17T18:20:20.274Z,2.80
2019-02-17T18:22:49.510Z,2.30
2019-02-17T18:25:19.068Z,2.50
2019-02-17T18:27:48.317Z,2.30
2019-02-17T18:30:21.159Z,2.73
2019-02-17T18:32:50.380Z,2.60
2019-02-17T18:35:20.744Z,2.30
2019-02-17T18:37:50.252Z,2.60
2019-02-17T18:40:20.219Z,2.60
2019-02-17T18:42:49.447Z,2.23
2019-02-17T18:45:19.086Z,2.00
2019-02-17T18:47:48.346Z,2.40
2019-02-17T18:50:18.636Z,2.00
2019-02-17T18:52:48.065Z,2.60
2019-02-17T18:55:17.352Z,2.30
2019-02-17T18:57:50.880Z,1.93
2019-02-17T19:00:19.265Z,1.90
2019-02-17T19:02:48.581Z,2.07
2019-02-17T19:05:20.148Z,1.97
2019-02-17T19:07:49.019Z,2.20
2019-02-17T19:10:19.369Z,1.97
2019-02-17T19:12:48.762Z,1.80
2019-02-17T19:15:20.265Z,1.90
2019-02-17T19:17:49.683Z,2.23
2019-02-17T19:20:27.771Z,1.85
2019-02-17T19:22:57.001Z,2.33
2019-02-17T19:25:26.259Z,1.73
2019-02-17T19:27:55.574Z,2.10
2019-02-17T19:30:24.849Z,1.93
2019-02-17T19:32:55.114Z,2.10
2019-02-17T19:35:24.351Z,1.70
2019-02-17T19:37:53.613Z,1.70
2019-02-17T19:40:22.874Z,1.80
2019-02-17T19:42:52.261Z,1.83
2019-02-17T19:45:21.513Z,1.87
2019-02-17T19:47:50.751Z,2.17
2019-02-17T19:50:19.989Z,1.97
2019-02-17T19:52:49.261Z,2.00
2019-02-17T19:55:19.166Z,2.30
2019-02-17T19:57:48.416Z,2.20
2019-02-17T20:00:20.798Z,2.50
2019-02-17T20:03:00.742Z,2.20
2019-02-17T20:05:31.696Z,2.63
2019-02-17T20:08:00.946Z,2.37
2019-02-17T20:10:30.194Z,2.57
2019-02-17T20:12:59.444Z,2.47
2019-02-17T20:15:33.043Z,2.90
2019-02-17T20:18:02.313Z,3.03
2019-02-17T20:20:31.571Z,3.50
2019-02-17T20:23:00.887Z,2.30
2019-02-17T20:25:30.116Z,2.87
2019-02-17T20:27:59.376Z,3.63
2019-02-17T20:30:28.697Z,3.20
2019-02-17T20:32:57.931Z,2.90
2019-02-17T20:35:27.185Z,3.27
2019-02-17T20:37:56.412Z,3.20
2019-02-17T20:40:25.648Z,3.33
2019-02-17T20:42:54.879Z,3.30
2019-02-17T20:45:24.191Z,3.07
2019-02-17T20:47:53.431Z,3.10
2019-02-17T20:50:22.662Z,3.93
2019-02-17T20:52:51.910Z,3.60
2019-02-17T20:55:21.151Z,3.80
2019-02-17T20:57:50.401Z,4.10
2019-02-17T21:00:22.938Z,4.07
2019-02-17T21:02:52.244Z,3.90
2019-02-17T21:05:21.525Z,4.33
2019-02-17T21:07:50.742Z,4.10
2019-02-17T21:10:19.982Z,3.83
2019-02-17T21:12:49.479Z,4.20
2019-02-17T21:15:22.190Z,3.98
2019-02-17T21:17:51.434Z,4.80
2019-02-17T21:20:21.454Z,4.20
2019-02-17T21:22:52.944Z,5.20
2019-02-17T21:25:21.660Z,5.00
2019-02-17T21:27:50.907Z,4.17
2019-02-17T21:30:20.519Z,5.00
2019-02-17T21:32:49.774Z,5.20
2019-02-17T21:35:19.330Z,5.13
2019-02-17T21:37:48.748Z,4.97
2019-02-17T21:40:17.986Z,5.77
2019-02-17T21:42:47.226Z,5.60
2019-02-17T21:45:16.928Z,6.37
2019-02-17T21:47:46.244Z,6.07
2019-02-17T21:50:15.931Z,5.77
2019-02-17T21:52:45.190Z,5.50
2019-02-17T21:55:15.098Z,5.77
2019-02-17T21:57:44.452Z,5.80
2019-02-17T22:00:19.728Z,6.57
2019-02-17T22:02:48.975Z,6.23
2019-02-17T22:05:18.836Z,7.73
2019-02-17T22:07:48.084Z,6.40
2019-02-17T22:10:20.487Z,7.00
2019-02-17T22:12:51.281Z,6.80
2019-02-17T22:15:23.202Z,6.93
2019-02-17T22:17:52.470Z,6.77
2019-02-17T22:20:21.789Z,7.03
2019-02-17T22:22:51.028Z,6.37
2019-02-17T22:25:20.302Z,6.13
2019-02-17T22:27:49.542Z,6.27
2019-02-17T22:30:19.421Z,5.80
2019-02-17T22:32:48.731Z,5.47
2019-02-17T22:35:17.972Z,5.80
2019-02-17T22:37:47.228Z,5.73
2019-02-17T22:40:16.668Z,6.27
2019-02-17T22:42:45.907Z,5.60
2019-02-17T22:45:15.137Z,5.90
2019-02-17T22:47:44.373Z,6.10
2019-02-17T22:50:14.671Z,6.00
2019-02-17T22:52:45.044Z,6.67
2019-02-17T22:55:14.685Z,6.43
2019-02-17T22:57:43.940Z,6.30
2019-02-17T23:00:40.553Z,6.57
2019-02-17T23:03:09.866Z,6.90
2019-02-17T23:05:39.145Z,5.97
2019-02-17T23:08:08.372Z,6.23
2019-02-17T23:10:37.688Z,6.07
2019-02-17T23:13:06.920Z,5.90
2019-02-17T23:15:36.154Z,5.97
2019-02-17T23:18:05.477Z,6.23
2019-02-17T23:20:34.717Z,5.47
2019-02-17T23:23:03.983Z,6.10
2019-02-17T23:25:33.384Z,6.63
2019-02-17T23:28:02.767Z,5.63
2019-02-17T23:30:32.021Z,5.73
2019-02-17T23:33:01.261Z,6.37
2019-02-17T23:35:30.479Z,6.57
2019-02-17T23:37:59.727Z,5.47
2019-02-17T23:40:28.945Z,5.97
2019-02-17T23:42:58.201Z,6.13
2019-02-17T23:45:27.419Z,5.83
2019-02-17T23:47:56.679Z,6.00
2019-02-17T23:50:25.909Z,6.17
2019-02-17T23:52:55.161Z,5.50
2019-02-17T23:55:24.404Z,5.03
2019-02-17T23:57:53.654Z,5.07
